sensor_id;sensor_type;location;lat;lon;timestamp;pressure;altitude;pressure_sealevel;temperature;humidity
8318;BME280;4196;48.926;8.964;2022-09-09T00:00:48;98675.47;;;13.99;100.00
8318;BME280;4196;48.926;8.964;2022-09-09T00:03:50;98640.28;;;13.82;100.00
8318;BME280;4196;48.926;8.964;2022-09-09T00:06:53;98667.63;;;14.01;100.00
8318;BME280;4196;48.926;8.964;2022-09-09T00:09:47;98636.84;;;13.80;100.00
8318;BME280;4196;48.926;8.964;2022-09-09T00:12:54;98650.66;;;13.85;100.00
8318;BME280;4196;48.926;8.964;2022-09-09T00:15:56;98665.97;;;13.97;100.00
8318;BME280;4196;48.926;8.964;2022-09-09T00:22:21;98652.13;;;13.95;100.00
8318;BME280;4196;48.926;8.964;2022-09-09T00:25:12;98661.72;;;13.93;100.00
8318;BME280;4196;48.926;8.964;2022-09-09T00:28:08;98663.38;;;13.97;100.00
8318;BME280;4196;48.926;8.964;2022-09-09T00:31:10;98633.34;;;13.81;100.00
8318;BME280;4196;48.926;8.964;2022-09-09T00:34:03;98639.75;;;14.05;100.00
8318;BME280;4196;48.926;8.964;2022-09-09T00:36:52;98609.00;;;13.85;100.00
8318;BME280;4196;48.926;8.964;2022-09-09T00:39:44;98650.91;;;14.11;100.00
8318;BME280;4196;48.926;8.964;2022-09-09T00:42:42;98657.75;;;14.14;100.00
8318;BME280;4196;48.926;8.964;2022-09-09T00:46:01;98664.59;;;14.19;100.00
8318;BME280;4196;48.926;8.964;2022-09-09T00:58:01;98659.69;;;14.06;100.00
8318;BME280;4196;48.926;8.964;2022-09-09T01:03:53;98666.47;;;14.13;100.00
8318;BME280;4196;48.926;8.964;2022-09-09T01:06:40;98644.91;;;14.06;100.00
8318;BME280;4196;48.926;8.964;2022-09-09T01:09:56;98649.94;;;14.15;100.00
8318;BME280;4196;48.926;8.964;2022-09-09T01:12:46;98663.84;;;14.14;100.00
8318;BME280;4196;48.926;8.964;2022-09-09T01:15:37;98611.44;;;13.92;100.00
8318;BME280;4196;48.926;8.964;2022-09-09T01:18:29;98644.84;;;14.09;100.00
8318;BME280;4196;48.926;8.964;2022-09-09T01:21:41;98666.44;;;14.14;100.00
8318;BME280;4196;48.926;8.964;2022-09-09T01:28:16;98663.91;;;14.11;100.00
8318;BME280;4196;48.926;8.964;2022-09-09T01:31:05;98675.28;;;14.07;100.00
8318;BME280;4196;48.926;8.964;2022-09-09T01:34:00;98684.81;;;14.08;100.00
8318;BME280;4196;48.926;8.964;2022-09-09T01:37:07;98651.44;;;13.88;100.00
8318;BME280;4196;48.926;8.964;2022-09-09T01:39:54;98634.94;;;13.88;100.00
8318;BME280;4196;48.926;8.964;2022-09-09T01:42:40;98641.72;;;13.95;100.00
8318;BME280;4196;48.926;8.964;2022-09-09T01:45:28;98678.63;;;14.12;100.00
8318;BME280;4196;48.926;8.964;2022-09-09T01:48:15;98639.03;;;13.99;100.00
8318;BME280;4196;48.926;8.964;2022-09-09T01:51:08;98677.66;;;14.16;100.00
8318;BME280;4196;48.926;8.964;2022-09-09T01:53:55;98686.31;;;14.18;100.00
8318;BME280;4196;48.926;8.964;2022-09-09T02:09:12;98611.44;;;13.92;100.00
8318;BME280;4196;48.926;8.964;2022-09-09T02:12:11;98624.44;;;13.92;100.00
8318;BME280;4196;48.926;8.964;2022-09-09T02:15:13;98642.72;;;13.89;100.00
8318;BME280;4196;48.926;8.964;2022-09-09T02:18:08;98689.88;;;14.14;100.00
8318;BME280;4196;48.926;8.964;2022-09-09T02:20:57;98664.47;;;13.87;100.00
8318;BME280;4196;48.926;8.964;2022-09-09T02:23:47;98617.63;;;13.48;100.00
8318;BME280;4196;48.926;8.964;2022-09-09T02:26:39;98635.75;;;13.51;100.00
8318;BME280;4196;48.926;8.964;2022-09-09T02:29:32;98640.72;;;13.62;100.00
8318;BME280;4196;48.926;8.964;2022-09-09T02:32:23;98651.09;;;13.63;100.00
8318;BME280;4196;48.926;8.964;2022-09-09T02:35:17;98664.81;;;13.71;100.00
8318;BME280;4196;48.926;8.964;2022-09-09T02:38:10;98645.19;;;13.57;100.00
8318;BME280;4196;48.926;8.964;2022-09-09T02:41:02;98622.91;;;13.43;100.00
8318;BME280;4196;48.926;8.964;2022-09-09T02:43:48;98630.53;;;13.51;100.00
8318;BME280;4196;48.926;8.964;2022-09-09T02:49:31;98607.34;;;13.42;100.00
8318;BME280;4196;48.926;8.964;2022-09-09T02:52:34;98638.97;;;13.62;100.00
8318;BME280;4196;48.926;8.964;2022-09-09T02:55:30;98603.38;;;13.64;100.00
8318;BME280;4196;48.926;8.964;2022-09-09T02:58:22;98608.66;;;13.61;100.00
8318;BME280;4196;48.926;8.964;2022-09-09T03:01:17;98605.19;;;13.61;100.00
8318;BME280;4196;48.926;8.964;2022-09-09T03:04:04;98649.06;;;13.77;100.00
8318;BME280;4196;48.926;8.964;2022-09-09T03:06:51;98640.53;;;13.69;100.00
8318;BME280;4196;48.926;8.964;2022-09-09T03:09:39;98619.34;;;13.47;100.00
8318;BME280;4196;48.926;8.964;2022-09-09T03:12:26;98625.19;;;13.59;100.00
8318;BME280;4196;48.926;8.964;2022-09-09T03:15:12;98633.75;;;13.62;100.00
8318;BME280;4196;48.926;8.964;2022-09-09T03:18:00;98559.31;;;13.16;100.00
8318;BME280;4196;48.926;8.964;2022-09-09T03:20:48;98647.78;;;13.57;100.00
8318;BME280;4196;48.926;8.964;2022-09-09T03:23:36;98621.25;;;13.41;100.00
8318;BME280;4196;48.926;8.964;2022-09-09T03:26:23;98547.59;;;12.95;100.00
8318;BME280;4196;48.926;8.964;2022-09-09T03:29:09;98637.72;;;13.40;100.00
8318;BME280;4196;48.926;8.964;2022-09-09T03:31:56;98626.50;;;13.38;100.00
8318;BME280;4196;48.926;8.964;2022-09-09T03:34:43;98646.28;;;13.45;100.00
8318;BME280;4196;48.926;8.964;2022-09-09T03:37:32;98626.63;;;13.32;100.00
8318;BME280;4196;48.926;8.964;2022-09-09T03:40:18;98606.00;;;13.21;100.00
8318;BME280;4196;48.926;8.964;2022-09-09T03:43:06;98637.72;;;13.40;100.00
8318;BME280;4196;48.926;8.964;2022-09-09T03:45:53;98615.75;;;13.11;100.00
8318;BME280;4196;48.926;8.964;2022-09-09T03:48:44;98638.19;;;13.15;100.00
8318;BME280;4196;48.926;8.964;2022-09-09T03:51:31;98633.16;;;13.06;100.00
8318;BME280;4196;48.926;8.964;2022-09-09T03:54:24;98621.31;;;12.93;100.00
8318;BME280;4196;48.926;8.964;2022-09-09T03:57:11;98649.69;;;13.03;100.00
8318;BME280;4196;48.926;8.964;2022-09-09T03:59:58;98654.91;;;13.03;100.00
8318;BME280;4196;48.926;8.964;2022-09-09T04:02:50;98663.53;;;13.04;100.00
8318;BME280;4196;48.926;8.964;2022-09-09T04:05:40;98633.25;;;13.01;100.00
8318;BME280;4196;48.926;8.964;2022-09-09T04:08:28;98655.75;;;13.04;100.00
8318;BME280;4196;48.926;8.964;2022-09-09T04:11:18;98658.34;;;13.02;100.00
8318;BME280;4196;48.926;8.964;2022-09-09T04:14:07;98650.66;;;12.98;100.00
8318;BME280;4196;48.926;8.964;2022-09-09T04:16:55;98663.25;;;13.18;100.00
8318;BME280;4196;48.926;8.964;2022-09-09T04:19:42;98612.78;;;12.86;100.00
8318;BME280;4196;48.926;8.964;2022-09-09T04:22:29;98632.31;;;13.07;100.00
8318;BME280;4196;48.926;8.964;2022-09-09T04:25:15;98660.38;;;13.35;100.00
8318;BME280;4196;48.926;8.964;2022-09-09T04:28:02;98590.72;;;13.07;100.00
8318;BME280;4196;48.926;8.964;2022-09-09T04:30:50;98625.78;;;13.31;100.00
8318;BME280;4196;48.926;8.964;2022-09-09T04:33:36;98660.03;;;13.51;100.00
8318;BME280;4196;48.926;8.964;2022-09-09T04:36:26;98615.09;;;13.45;100.00
8318;BME280;4196;48.926;8.964;2022-09-09T04:39:17;98634.03;;;13.50;100.00
8318;BME280;4196;48.926;8.964;2022-09-09T04:42:04;98669.66;;;13.87;100.00
8318;BME280;4196;48.926;8.964;2022-09-09T04:44:50;98666.56;;;13.69;100.00
8318;BME280;4196;48.926;8.964;2022-09-09T04:47:36;98650.22;;;13.64;100.00
8318;BME280;4196;48.926;8.964;2022-09-09T04:50:23;98675.25;;;13.70;100.00
8318;BME280;4196;48.926;8.964;2022-09-09T04:53:17;98693.13;;;13.85;100.00
8318;BME280;4196;48.926;8.964;2022-09-09T04:56:06;98696.53;;;13.87;100.00
8318;BME280;4196;48.926;8.964;2022-09-09T04:58:57;98662.94;;;13.76;100.00
8318;BME280;4196;48.926;8.964;2022-09-09T05:01:54;98641.56;;;13.62;100.00
8318;BME280;4196;48.926;8.964;2022-09-09T05:04:41;98656.88;;;13.77;100.00
8318;BME280;4196;48.926;8.964;2022-09-09T05:07:27;98697.03;;;14.05;100.00
8318;BME280;4196;48.926;8.964;2022-09-09T05:10:15;98677.97;;;14.04;100.00
8318;BME280;4196;48.926;8.964;2022-09-09T05:13:05;98679.66;;;14.05;100.00
8318;BME280;4196;48.926;8.964;2022-09-09T05:15:53;98702.75;;;14.20;100.00
8318;BME280;4196;48.926;8.964;2022-09-09T05:18:41;98676.03;;;14.12;100.00
8318;BME280;4196;48.926;8.964;2022-09-09T05:21:32;98669.91;;;14.15;100.00
8318;BME280;4196;48.926;8.964;2022-09-09T05:24:19;98668.16;;;14.15;100.00
8318;BME280;4196;48.926;8.964;2022-09-09T05:27:08;98687.94;;;14.22;100.00
8318;BME280;4196;48.926;8.964;2022-09-09T05:29:58;98686.97;;;14.26;100.00
8318;BME280;4196;48.926;8.964;2022-09-09T05:32:45;98712.00;;;14.34;100.00
8318;BME280;4196;48.926;8.964;2022-09-09T05:35:32;98703.16;;;14.39;100.00
8318;BME280;4196;48.926;8.964;2022-09-09T05:38:19;98694.31;;;14.46;100.00
8318;BME280;4196;48.926;8.964;2022-09-09T05:41:07;98717.41;;;14.63;100.00
8318;BME280;4196;48.926;8.964;2022-09-09T05:43:54;98693.31;;;14.54;100.00
8318;BME280;4196;48.926;8.964;2022-09-09T05:46:41;98683.94;;;14.45;100.00
8318;BME280;4196;48.926;8.964;2022-09-09T05:49:27;98675.03;;;14.55;100.00
8318;BME280;4196;48.926;8.964;2022-09-09T05:52:14;98699.09;;;14.66;100.00
8318;BME280;4196;48.926;8.964;2022-09-09T05:55:00;98716.69;;;14.91;100.00
8318;BME280;4196;48.926;8.964;2022-09-09T05:57:48;98697.50;;;14.93;100.00
8318;BME280;4196;48.926;8.964;2022-09-09T06:00:35;98701.59;;;15.04;100.00
8318;BME280;4196;48.926;8.964;2022-09-09T06:03:21;98702.41;;;15.06;100.00
8318;BME280;4196;48.926;8.964;2022-09-09T06:06:12;98728.75;;;15.28;100.00
8318;BME280;4196;48.926;8.964;2022-09-09T06:08:59;98722.81;;;15.22;100.00
8318;BME280;4196;48.926;8.964;2022-09-09T06:11:52;98704.56;;;15.22;100.00
8318;BME280;4196;48.926;8.964;2022-09-09T06:14:41;98730.22;;;15.39;100.00
8318;BME280;4196;48.926;8.964;2022-09-09T06:17:32;98664.88;;;15.11;100.00
8318;BME280;4196;48.926;8.964;2022-09-09T06:20:19;98730.53;;;15.58;100.00
8318;BME280;4196;48.926;8.964;2022-09-09T06:23:06;98702.91;;;15.51;100.00
8318;BME280;4196;48.926;8.964;2022-09-09T06:26:10;98723.94;;;15.78;100.00
8318;BME280;4196;48.926;8.964;2022-09-09T06:28:58;98736.25;;;15.73;100.00
8318;BME280;4196;48.926;8.964;2022-09-09T06:31:45;98709.06;;;15.49;100.00
8318;BME280;4196;48.926;8.964;2022-09-09T06:34:41;98733.22;;;15.55;100.00
8318;BME280;4196;48.926;8.964;2022-09-09T06:37:28;98739.47;;;15.50;100.00
8318;BME280;4196;48.926;8.964;2022-09-09T06:40:15;98706.88;;;15.33;100.00
8318;BME280;4196;48.926;8.964;2022-09-09T06:43:02;98722.09;;;15.50;100.00
8318;BME280;4196;48.926;8.964;2022-09-09T06:46:05;98736.16;;;15.76;100.00
8318;BME280;4196;48.926;8.964;2022-09-09T06:48:52;98716.63;;;15.89;100.00
8318;BME280;4196;48.926;8.964;2022-09-09T06:51:41;98731.28;;;16.23;100.00
8318;BME280;4196;48.926;8.964;2022-09-09T06:54:31;98740.16;;;16.45;100.00
8318;BME280;4196;48.926;8.964;2022-09-09T06:57:17;98735.16;;;16.65;100.00
8318;BME280;4196;48.926;8.964;2022-09-09T07:00:23;98715.69;;;16.76;100.00
8318;BME280;4196;48.926;8.964;2022-09-09T07:03:10;98714.63;;;16.81;100.00
8318;BME280;4196;48.926;8.964;2022-09-09T07:05:59;98742.41;;;17.10;98.22
8318;BME280;4196;48.926;8.964;2022-09-09T07:08:55;98722.09;;;16.92;100.00
8318;BME280;4196;48.926;8.964;2022-09-09T07:11:48;98747.09;;;17.26;100.00
8318;BME280;4196;48.926;8.964;2022-09-09T07:14:35;98743.38;;;17.33;100.00
8318;BME280;4196;48.926;8.964;2022-09-09T07:17:27;98758.97;;;17.61;97.85
8318;BME280;4196;48.926;8.964;2022-09-09T07:20:14;98731.38;;;17.51;97.21
8318;BME280;4196;48.926;8.964;2022-09-09T07:23:01;98714.13;;;17.45;97.80
8318;BME280;4196;48.926;8.964;2022-09-09T07:25:48;98739.06;;;17.55;98.80
8318;BME280;4196;48.926;8.964;2022-09-09T07:28:35;98730.34;;;17.56;98.64
8318;BME280;4196;48.926;8.964;2022-09-09T07:31:28;98733.84;;;17.80;99.24
8318;BME280;4196;48.926;8.964;2022-09-09T07:34:17;98708.44;;;17.82;96.91
8318;BME280;4196;48.926;8.964;2022-09-09T07:37:05;98712.06;;;18.02;98.36
8318;BME280;4196;48.926;8.964;2022-09-09T07:39:52;98721.22;;;18.14;97.62
8318;BME280;4196;48.926;8.964;2022-09-09T07:42:39;98725.31;;;18.21;94.36
8318;BME280;4196;48.926;8.964;2022-09-09T07:45:26;98728.47;;;18.29;91.56
8318;BME280;4196;48.926;8.964;2022-09-09T07:48:15;98721.28;;;18.12;90.64
8318;BME280;4196;48.926;8.964;2022-09-09T07:51:10;98715.97;;;18.14;93.16
8318;BME280;4196;48.926;8.964;2022-09-09T07:54:04;98738.97;;;18.29;87.06
8318;BME280;4196;48.926;8.964;2022-09-09T07:56:52;98719.13;;;18.00;87.70
8318;BME280;4196;48.926;8.964;2022-09-09T07:59:41;98735.84;;;17.97;93.26
8318;BME280;4196;48.926;8.964;2022-09-09T08:02:28;98754.00;;;18.02;94.11
8318;BME280;4196;48.926;8.964;2022-09-09T08:05:15;98701.34;;;17.86;96.29
8318;BME280;4196;48.926;8.964;2022-09-09T08:08:03;98713.66;;;18.06;93.40
8318;BME280;4196;48.926;8.964;2022-09-09T08:10:50;98721.34;;;18.32;91.62
8318;BME280;4196;48.926;8.964;2022-09-09T08:13:40;98716.34;;;18.48;92.19
8318;BME280;4196;48.926;8.964;2022-09-09T08:16:28;98741.97;;;18.86;87.93
8318;BME280;4196;48.926;8.964;2022-09-09T08:19:17;98754.66;;;18.96;88.27
8318;BME280;4196;48.926;8.964;2022-09-09T08:22:05;98717.75;;;18.79;87.73
8318;BME280;4196;48.926;8.964;2022-09-09T08:24:53;98730.38;;;19.12;84.54
8318;BME280;4196;48.926;8.964;2022-09-09T08:27:40;98722.78;;;19.26;83.23
8318;BME280;4196;48.926;8.964;2022-09-09T08:30:26;98722.75;;;19.46;82.32
8318;BME280;4196;48.926;8.964;2022-09-09T08:33:13;98724.66;;;19.63;79.52
8318;BME280;4196;48.926;8.964;2022-09-09T08:36:00;98717.16;;;19.74;78.96
8318;BME280;4196;48.926;8.964;2022-09-09T08:38:51;98707.47;;;19.75;77.50
8318;BME280;4196;48.926;8.964;2022-09-09T08:50:53;98735.31;;;20.17;75.41
8318;BME280;4196;48.926;8.964;2022-09-09T08:53:50;98714.88;;;20.05;77.24
8318;BME280;4196;48.926;8.964;2022-09-09T08:56:42;98712.25;;;20.05;74.79
8318;BME280;4196;48.926;8.964;2022-09-09T08:59:28;98747.81;;;20.31;75.57
8318;BME280;4196;48.926;8.964;2022-09-09T09:02:18;98744.25;;;20.50;78.76
8318;BME280;4196;48.926;8.964;2022-09-09T09:05:28;98745.81;;;20.73;75.99
8318;BME280;4196;48.926;8.964;2022-09-09T09:11:11;98699.56;;;21.20;68.80
8318;BME280;4196;48.926;8.964;2022-09-09T09:14:03;98722.00;;;21.62;67.36
8318;BME280;4196;48.926;8.964;2022-09-09T09:17:06;98734.81;;;22.01;62.40
8318;BME280;4196;48.926;8.964;2022-09-09T09:19:59;98713.97;;;21.97;58.58
8318;BME280;4196;48.926;8.964;2022-09-09T09:22:51;98715.94;;;22.09;60.99
8318;BME280;4196;48.926;8.964;2022-09-09T09:25:40;98699.13;;;22.27;60.64
8318;BME280;4196;48.926;8.964;2022-09-09T09:28:32;98721.22;;;22.72;58.12
8318;BME280;4196;48.926;8.964;2022-09-09T09:31:26;98705.22;;;22.89;58.38
8318;BME280;4196;48.926;8.964;2022-09-09T09:34:13;98691.34;;;23.02;55.14
8318;BME280;4196;48.926;8.964;2022-09-09T09:37:00;98676.06;;;23.07;56.55
8318;BME280;4196;48.926;8.964;2022-09-09T09:39:52;98701.56;;;23.22;57.05
8318;BME280;4196;48.926;8.964;2022-09-09T09:42:58;98707.59;;;23.24;54.69
8318;BME280;4196;48.926;8.964;2022-09-09T09:45:45;98716.25;;;23.12;56.02
8318;BME280;4196;48.926;8.964;2022-09-09T09:49:05;98689.78;;;22.67;56.03
8318;BME280;4196;48.926;8.964;2022-09-09T09:52:00;98701.38;;;22.02;59.79
8318;BME280;4196;48.926;8.964;2022-09-09T09:54:49;98739.19;;;21.69;62.09
8318;BME280;4196;48.926;8.964;2022-09-09T09:57:37;98719.56;;;21.07;63.88
8318;BME280;4196;48.926;8.964;2022-09-09T10:00:28;98730.06;;;20.72;70.04
8318;BME280;4196;48.926;8.964;2022-09-09T10:06:13;98742.53;;;18.70;87.45
8318;BME280;4196;48.926;8.964;2022-09-09T10:09:01;98723.06;;;18.12;98.22
8318;BME280;4196;48.926;8.964;2022-09-09T10:12:08;98700.00;;;17.98;100.00
8318;BME280;4196;48.926;8.964;2022-09-09T10:18:31;98704.03;;;18.50;100.00
8318;BME280;4196;48.926;8.964;2022-09-09T10:34:22;98713.38;;;19.41;100.00
8318;BME280;4196;48.926;8.964;2022-09-09T10:40:36;98696.06;;;19.16;100.00
8318;BME280;4196;48.926;8.964;2022-09-09T10:52:38;98736.88;;;19.64;87.86
8318;BME280;4196;48.926;8.964;2022-09-09T10:55:41;98748.66;;;19.74;88.27
8318;BME280;4196;48.926;8.964;2022-09-09T10:58:33;98731.69;;;19.63;84.54
8318;BME280;4196;48.926;8.964;2022-09-09T11:01:25;98737.16;;;19.57;85.09
8318;BME280;4196;48.926;8.964;2022-09-09T11:04:31;98710.28;;;19.31;81.89
8318;BME280;4196;48.926;8.964;2022-09-09T11:10:32;98780.75;;;19.40;81.14
8318;BME280;4196;48.926;8.964;2022-09-09T11:13:30;98782.19;;;19.06;87.73
8318;BME280;4196;48.926;8.964;2022-09-09T11:16:44;98785.69;;;18.63;88.72
8318;BME280;4196;48.926;8.964;2022-09-09T11:19:41;98780.56;;;18.15;92.92
8318;BME280;4196;48.926;8.964;2022-09-09T11:22:36;98737.47;;;17.51;96.53
8318;BME280;4196;48.926;8.964;2022-09-09T11:25:40;98770.09;;;17.43;100.00
8318;BME280;4196;48.926;8.964;2022-09-09T11:40:38;98744.44;;;17.02;100.00
8318;BME280;4196;48.926;8.964;2022-09-09T11:43:31;98775.41;;;17.14;100.00
8318;BME280;4196;48.926;8.964;2022-09-09T11:46:21;98767.53;;;17.16;100.00
8318;BME280;4196;48.926;8.964;2022-09-09T11:49:29;98734.63;;;17.09;100.00
8318;BME280;4196;48.926;8.964;2022-09-09T12:00:59;98687.09;;;17.93;99.17
8318;BME280;4196;48.926;8.964;2022-09-09T12:03:48;98709.41;;;18.47;98.92
8318;BME280;4196;48.926;8.964;2022-09-09T12:06:46;98701.34;;;18.74;96.52
8318;BME280;4196;48.926;8.964;2022-09-09T12:09:50;98699.53;;;18.76;93.15
8318;BME280;4196;48.926;8.964;2022-09-09T12:12:38;98707.66;;;18.90;95.85
8318;BME280;4196;48.926;8.964;2022-09-09T12:15:29;98706.22;;;19.24;92.40
8318;BME280;4196;48.926;8.964;2022-09-09T12:18:22;98698.53;;;19.40;89.22
8318;BME280;4196;48.926;8.964;2022-09-09T12:21:36;98714.78;;;19.68;91.77
8318;BME280;4196;48.926;8.964;2022-09-09T12:24:35;98701.97;;;19.81;96.69
8318;BME280;4196;48.926;8.964;2022-09-09T12:27:31;98716.28;;;20.12;90.70
8318;BME280;4196;48.926;8.964;2022-09-09T12:30:20;98684.19;;;20.05;89.16
8318;BME280;4196;48.926;8.964;2022-09-09T12:33:16;98718.53;;;20.38;84.01
8318;BME280;4196;48.926;8.964;2022-09-09T12:36:04;98698.47;;;20.36;81.66
8318;BME280;4196;48.926;8.964;2022-09-09T12:38:57;98685.13;;;20.40;84.57
8318;BME280;4196;48.926;8.964;2022-09-09T12:41:53;98688.19;;;20.50;79.50
8318;BME280;4196;48.926;8.964;2022-09-09T12:45:03;98715.97;;;20.56;88.57
8318;BME280;4196;48.926;8.964;2022-09-09T12:47:59;98677.31;;;20.39;76.57
8318;BME280;4196;48.926;8.964;2022-09-09T12:50:52;98696.19;;;20.66;82.96
8318;BME280;4196;48.926;8.964;2022-09-09T12:53:39;98682.88;;;20.86;79.29
8318;BME280;4196;48.926;8.964;2022-09-09T12:56:27;98703.59;;;21.27;72.13
8318;BME280;4196;48.926;8.964;2022-09-09T12:59:24;98688.41;;;21.32;67.90
8318;BME280;4196;48.926;8.964;2022-09-09T13:02:26;98669.06;;;21.33;66.56
8318;BME280;4196;48.926;8.964;2022-09-09T13:05:20;98686.97;;;21.60;69.01
8318;BME280;4196;48.926;8.964;2022-09-09T13:08:09;98665.63;;;21.49;63.68
8318;BME280;4196;48.926;8.964;2022-09-09T13:10:59;98647.28;;;21.47;61.84
8318;BME280;4196;48.926;8.964;2022-09-09T13:13:52;98656.13;;;21.62;60.51
8318;BME280;4196;48.926;8.964;2022-09-09T13:16:39;98676.03;;;21.83;61.38
8318;BME280;4196;48.926;8.964;2022-09-09T13:19:38;98684.28;;;22.09;64.94
8318;BME280;4196;48.926;8.964;2022-09-09T13:22:34;98678.25;;;22.38;59.50
8318;BME280;4196;48.926;8.964;2022-09-09T13:25:27;98657.16;;;22.38;57.06
8318;BME280;4196;48.926;8.964;2022-09-09T13:28:20;98670.09;;;22.73;56.36
8318;BME280;4196;48.926;8.964;2022-09-09T13:34:14;98631.16;;;22.93;57.68
8318;BME280;4196;48.926;8.964;2022-09-09T13:37:39;98641.38;;;23.27;57.06
8318;BME280;4196;48.926;8.964;2022-09-09T13:40:28;98668.19;;;23.50;54.00
8318;BME280;4196;48.926;8.964;2022-09-09T13:43:21;98670.25;;;23.59;56.05
8318;BME280;4196;48.926;8.964;2022-09-09T13:46:36;98614.38;;;23.36;52.01
8318;BME280;4196;48.926;8.964;2022-09-09T13:49:23;98652.06;;;23.69;54.30
8318;BME280;4196;48.926;8.964;2022-09-09T13:52:17;98621.16;;;23.69;54.53
8318;BME280;4196;48.926;8.964;2022-09-09T13:55:05;98643.31;;;23.95;52.55
8318;BME280;4196;48.926;8.964;2022-09-09T13:57:56;98658.16;;;23.83;51.55
8318;BME280;4196;48.926;8.964;2022-09-09T14:00:43;98639.28;;;23.32;50.51
8318;BME280;4196;48.926;8.964;2022-09-09T14:03:31;98622.88;;;22.99;52.57
8318;BME280;4196;48.926;8.964;2022-09-09T14:06:17;98608.34;;;23.20;49.42
8318;BME280;4196;48.926;8.964;2022-09-09T14:09:12;98647.47;;;23.56;50.02
8318;BME280;4196;48.926;8.964;2022-09-09T14:11:58;98633.44;;;23.70;50.66
8318;BME280;4196;48.926;8.964;2022-09-09T14:14:45;98605.41;;;23.68;49.09
8318;BME280;4196;48.926;8.964;2022-09-09T14:17:33;98627.41;;;23.54;50.74
8318;BME280;4196;48.926;8.964;2022-09-09T14:20:19;98619.09;;;23.17;51.69
8318;BME280;4196;48.926;8.964;2022-09-09T14:23:10;98636.44;;;22.93;53.87
8318;BME280;4196;48.926;8.964;2022-09-09T14:25:57;98633.31;;;22.70;54.78
8318;BME280;4196;48.926;8.964;2022-09-09T14:28:43;98612.53;;;22.50;54.50
8318;BME280;4196;48.926;8.964;2022-09-09T14:31:41;98623.63;;;22.40;52.61
8318;BME280;4196;48.926;8.964;2022-09-09T14:34:27;98643.88;;;22.40;53.27
8318;BME280;4196;48.926;8.964;2022-09-09T14:37:13;98644.06;;;22.37;52.17
8318;BME280;4196;48.926;8.964;2022-09-09T14:40:00;98609.72;;;22.07;52.19
8318;BME280;4196;48.926;8.964;2022-09-09T14:42:46;98654.22;;;22.29;50.77
8318;BME280;4196;48.926;8.964;2022-09-09T14:45:35;98654.03;;;22.32;50.23
8318;BME280;4196;48.926;8.964;2022-09-09T14:48:23;98654.59;;;22.37;48.24
8318;BME280;4196;48.926;8.964;2022-09-09T14:51:12;98670.31;;;22.24;51.04
8318;BME280;4196;48.926;8.964;2022-09-09T14:53:59;98680.84;;;22.24;51.76
8318;BME280;4196;48.926;8.964;2022-09-09T14:56:45;98653.75;;;22.05;49.22
8318;BME280;4196;48.926;8.964;2022-09-09T14:59:33;98654.94;;;21.83;51.36
8318;BME280;4196;48.926;8.964;2022-09-09T15:02:20;98668.63;;;21.74;51.40
8318;BME280;4196;48.926;8.964;2022-09-09T15:05:07;98655.63;;;21.55;50.98
8318;BME280;4196;48.926;8.964;2022-09-09T15:07:54;98647.78;;;21.54;50.82
8318;BME280;4196;48.926;8.964;2022-09-09T15:10:40;98669.78;;;21.53;53.65
8318;BME280;4196;48.926;8.964;2022-09-09T15:13:26;98650.13;;;21.42;51.98
8318;BME280;4196;48.926;8.964;2022-09-09T15:16:16;98617.31;;;21.32;51.96
8318;BME280;4196;48.926;8.964;2022-09-09T15:19:02;98631.53;;;21.45;51.99
8318;BME280;4196;48.926;8.964;2022-09-09T15:21:49;98634.44;;;21.57;53.69
8318;BME280;4196;48.926;8.964;2022-09-09T15:24:35;98614.97;;;21.43;53.70
8318;BME280;4196;48.926;8.964;2022-09-09T15:27:21;98645.25;;;21.68;52.05
8318;BME280;4196;48.926;8.964;2022-09-09T15:30:10;98646.44;;;21.78;52.29
8318;BME280;4196;48.926;8.964;2022-09-09T15:32:56;98640.91;;;21.67;53.54
8318;BME280;4196;48.926;8.964;2022-09-09T15:35:43;98656.88;;;21.64;56.84
8318;BME280;4196;48.926;8.964;2022-09-09T15:38:31;98649.63;;;21.36;58.32
8318;BME280;4196;48.926;8.964;2022-09-09T15:41:19;98599.50;;;20.87;56.92
8318;BME280;4196;48.926;8.964;2022-09-09T15:44:05;98640.63;;;20.89;56.75
8318;BME280;4196;48.926;8.964;2022-09-09T15:46:52;98665.53;;;20.82;58.82
8318;BME280;4196;48.926;8.964;2022-09-09T15:49:41;98673.56;;;20.62;59.52
8318;BME280;4196;48.926;8.964;2022-09-09T15:52:28;98668.66;;;20.37;60.06
8318;BME280;4196;48.926;8.964;2022-09-09T15:55:14;98676.47;;;20.38;60.71
8318;BME280;4196;48.926;8.964;2022-09-09T15:58:01;98688.13;;;20.33;64.64
8318;BME280;4196;48.926;8.964;2022-09-09T16:00:47;98691.59;;;19.78;68.83
8318;BME280;4196;48.926;8.964;2022-09-09T16:03:38;98703.59;;;19.44;69.60
8318;BME280;4196;48.926;8.964;2022-09-09T16:06:30;98747.44;;;19.42;69.56
8318;BME280;4196;48.926;8.964;2022-09-09T16:09:18;98772.78;;;19.23;66.79
8318;BME280;4196;48.926;8.964;2022-09-09T16:12:05;98764.44;;;18.71;67.58
8318;BME280;4196;48.926;8.964;2022-09-09T16:14:58;98762.00;;;18.21;72.91
8318;BME280;4196;48.926;8.964;2022-09-09T16:17:45;98758.22;;;17.57;83.98
8318;BME280;4196;48.926;8.964;2022-09-09T16:20:32;98763.41;;;17.09;93.08
8318;BME280;4196;48.926;8.964;2022-09-09T16:23:18;98688.47;;;16.27;91.79
8318;BME280;4196;48.926;8.964;2022-09-09T16:26:06;98751.66;;;16.11;98.38
8318;BME280;4196;48.926;8.964;2022-09-09T16:28:52;98718.28;;;15.60;100.00
8318;BME280;4196;48.926;8.964;2022-09-09T16:31:40;98730.84;;;15.48;100.00
8318;BME280;4196;48.926;8.964;2022-09-09T16:34:27;98737.03;;;15.43;100.00
8318;BME280;4196;48.926;8.964;2022-09-09T16:37:13;98716.69;;;15.23;100.00
8318;BME280;4196;48.926;8.964;2022-09-09T16:40:00;98727.22;;;15.20;100.00
8318;BME280;4196;48.926;8.964;2022-09-09T16:42:46;98704.16;;;15.05;100.00
8318;BME280;4196;48.926;8.964;2022-09-09T16:45:33;98742.56;;;15.33;100.00
8318;BME280;4196;48.926;8.964;2022-09-09T16:48:19;98746.28;;;15.55;100.00
8318;BME280;4196;48.926;8.964;2022-09-09T16:51:09;98719.47;;;15.50;100.00
8318;BME280;4196;48.926;8.964;2022-09-09T16:53:59;98722.31;;;15.74;100.00
8318;BME280;4196;48.926;8.964;2022-09-09T16:56:47;98728.84;;;15.87;100.00
8318;BME280;4196;48.926;8.964;2022-09-09T16:59:33;98706.34;;;15.83;100.00
8318;BME280;4196;48.926;8.964;2022-09-09T17:02:20;98715.69;;;15.91;100.00
8318;BME280;4196;48.926;8.964;2022-09-09T17:05:07;98718.75;;;16.06;100.00
8318;BME280;4196;48.926;8.964;2022-09-09T17:07:53;98704.19;;;15.97;100.00
8318;BME280;4196;48.926;8.964;2022-09-09T17:10:43;98712.84;;;15.99;100.00